Time;durP1;ratioP1;P1;durP2;ratioP2;P2;SDS_P1;SDS_P2;PMS_P1;PMS_P2;Temp;Humidity;BMP_temperature;BMP_pressure;BME280_temperature;BME280_humidity;BME280_pressure;Samples;Min_cycle;Max_cycle;Signal;HPM_P1;HPM_P2
2023/03/04 00:00:54;;;;;;;18.30;5.77;;;;;;;2.90;90.54;101340.72;5073634;28;20202;-80
2023/03/04 00:03:20;;;;;;;12.83;6.40;;;;;;;2.98;90.12;101360.72;5073722;28;20554;-79
2023/03/04 00:05:47;;;;;;;9.87;4.33;;;;;;;3.02;89.81;101365.97;5073203;28;20297;-80
2023/03/04 00:08:13;;;;;;;14.87;6.10;;;;;;;2.99;90.31;101361.56;5051074;28;20234;-79
2023/03/04 00:10:42;;;;;;;12.97;4.80;;;;;;;3.09;90.10;101370.44;5054582;28;20258;-80
2023/03/04 00:13:08;;;;;;;19.23;5.20;;;;;;;3.08;89.63;101377.31;5050762;28;20195;-77
2023/03/04 00:15:35;;;;;;;17.13;5.27;;;;;;;3.05;89.67;101378.91;5054880;28;20207;-78
2023/03/04 00:18:01;;;;;;;13.77;5.83;;;;;;;3.05;89.68;101381.50;5055776;28;20232;-78
2023/03/04 00:20:27;;;;;;;11.50;5.00;;;;;;;3.03;89.96;101388.31;5057962;28;20204;-80
2023/03/04 00:22:54;;;;;;;16.43;5.33;;;;;;;3.06;89.19;101393.56;5058063;28;20264;-79
2023/03/04 00:25:20;;;;;;;14.13;4.77;;;;;;;3.09;88.61;101397.13;5058448;28;20213;-79
2023/03/04 00:27:48;;;;;;;11.47;5.60;;;;;;;3.10;89.24;101413.47;5056460;28;20217;-79
2023/03/04 00:30:14;;;;;;;21.53;5.37;;;;;;;3.18;88.15;101417.13;5059253;28;20197;-80
2023/03/04 00:32:41;;;;;;;21.17;4.60;;;;;;;3.21;88.24;101424.97;5058983;28;20212;-79
2023/03/04 00:35:08;;;;;;;13.80;4.27;;;;;;;3.15;88.64;101415.34;5058236;28;20208;-79
2023/03/04 00:37:34;;;;;;;11.50;4.17;;;;;;;3.16;89.07;101411.91;5058429;28;20283;-80
2023/03/04 00:40:00;;;;;;;14.37;4.90;;;;;;;3.20;89.25;101399.09;5057478;28;20263;-77
2023/03/04 00:42:27;;;;;;;9.23;4.00;;;;;;;3.11;88.80;101403.19;5056005;28;20208;-80
2023/03/04 00:44:54;;;;;;;14.53;5.47;;;;;;;3.11;88.45;101402.28;5057779;28;20641;-79
2023/03/04 00:47:21;;;;;;;13.00;4.60;;;;;;;3.14;88.47;101407.56;5058329;28;20672;-80
2023/03/04 00:49:47;;;;;;;12.97;3.87;;;;;;;3.23;88.31;101407.81;5058169;28;20609;-80
2023/03/04 00:52:13;;;;;;;15.07;4.53;;;;;;;3.22;88.24;101420.66;5058295;28;20211;-79
2023/03/04 00:54:40;;;;;;;10.70;3.60;;;;;;;3.24;87.87;101417.28;5058636;28;20209;-79
2023/03/04 00:57:06;;;;;;;10.90;3.97;;;;;;;3.22;87.99;101415.50;5057669;28;20270;-80
2023/03/04 00:59:32;;;;;;;16.53;4.07;;;;;;;3.16;88.72;101411.03;5057301;28;20753;-79
2023/03/04 01:02:00;;;;;;;16.23;4.60;;;;;;;3.11;89.04;101392.88;5057715;28;20201;-80
2023/03/04 01:04:26;;;;;;;16.00;4.17;;;;;;;3.08;89.45;101379.88;5056990;28;20205;-80
2023/03/04 01:06:53;;;;;;;13.40;4.13;;;;;;;3.20;88.69;101379.34;5057979;28;20217;-79
2023/03/04 01:09:19;;;;;;;9.40;4.60;;;;;;;3.19;88.78;101382.72;5057550;28;20259;-80
2023/03/04 01:11:46;;;;;;;15.07;5.07;;;;;;;3.24;87.91;101380.28;5058175;28;20231;-79
2023/03/04 01:14:12;;;;;;;12.37;4.67;;;;;;;3.21;87.40;101399.16;5057212;28;20212;-77
2023/03/04 01:16:38;;;;;;;17.30;4.30;;;;;;;3.24;87.94;101401.81;5055513;28;20247;-80
2023/03/04 01:19:06;;;;;;;10.27;4.63;;;;;;;3.30;87.71;101404.53;5057458;28;20229;-80
2023/03/04 01:21:32;;;;;;;13.00;3.93;;;;;;;3.30;87.71;101391.63;5057512;28;20565;-80
2023/03/04 01:23:59;;;;;;;11.43;4.20;;;;;;;3.34;87.18;101401.19;5057258;28;20210;-80
2023/03/04 01:26:25;;;;;;;11.10;4.30;;;;;;;3.36;87.02;101414.16;5056997;28;20325;-80
2023/03/04 01:28:51;;;;;;;11.23;4.57;;;;;;;3.41;86.86;101411.69;5057459;28;20217;-80
2023/03/04 01:31:18;;;;;;;13.23;4.73;;;;;;;3.41;86.42;101422.91;5056765;28;20277;-80
2023/03/04 01:33:44;;;;;;;14.50;4.20;;;;;;;3.39;86.88;101414.25;5056227;28;20204;-77
2023/03/04 01:36:12;;;;;;;9.30;4.20;;;;;;;3.36;86.30;101421.91;5054835;28;20893;-79
2023/03/04 01:38:38;;;;;;;13.07;4.20;;;;;;;3.29;87.33;101402.81;5056363;28;20231;-79
2023/03/04 01:41:06;;;;;;;11.23;4.47;;;;;;;3.26;87.52;101386.38;5056580;28;20233;-79
2023/03/04 01:43:36;;;;;;;13.63;4.97;;;;;;;3.24;87.92;101369.97;5057053;28;20569;-80
2023/03/04 01:46:03;;;;;;;13.00;4.53;;;;;;;3.22;88.13;101364.78;5057310;28;20263;-80
2023/03/04 01:48:32;;;;;;;14.97;4.87;;;;;;;3.36;87.86;101359.97;5057434;28;20260;-79
2023/03/04 01:51:01;;;;;;;11.77;4.87;;;;;;;3.24;88.68;101354.50;5056722;28;20230;-80
2023/03/04 01:53:30;;;;;;;19.17;5.20;;;;;;;3.26;87.51;101351.09;5056540;28;20203;-80
2023/03/04 01:55:58;;;;;;;11.60;4.37;;;;;;;3.35;88.15;101337.56;5056883;28;20234;-80
2023/03/04 01:58:28;;;;;;;13.63;4.47;;;;;;;3.36;87.54;101334.16;5056107;28;20221;-80
2023/03/04 02:00:54;;;;;;;12.30;4.17;;;;;;;3.33;87.69;101340.13;5055764;28;20785;-80
2023/03/04 02:03:21;;;;;;;11.30;3.97;;;;;;;3.32;87.78;101337.50;5055803;28;20275;-80
2023/03/04 02:05:50;;;;;;;14.13;4.00;;;;;;;3.31;88.06;101317.66;5054506;28;20203;-80
2023/03/04 02:08:19;;;;;;;10.63;3.60;;;;;;;3.37;87.74;101312.69;5056042;28;20275;-79
2023/03/04 02:10:48;;;;;;;5.43;2.93;;;;;;;3.42;87.75;101310.22;5055746;28;20283;-79
2023/03/04 02:13:15;;;;;;;13.67;3.70;;;;;;;3.44;87.64;101305.97;5055810;28;20204;-80
2023/03/04 02:15:44;;;;;;;9.00;3.53;;;;;;;3.46;87.73;101307.72;5055340;28;20198;-77
2023/03/04 02:18:15;;;;;;;8.67;3.00;;;;;;;3.35;88.85;101293.69;5054036;28;20253;-77
2023/03/04 02:20:48;;;;;;;5.80;2.23;;;;;;;3.37;88.73;101274.84;5055474;28;20206;-80
2023/03/04 02:23:20;;;;;;;9.07;2.77;;;;;;;3.37;89.38;101267.09;5055866;28;20280;-80
2023/03/04 02:25:55;;;;;;;10.77;2.60;;;;;;;3.41;89.01;101256.84;5053406;28;20231;-78
2023/03/04 02:28:22;;;;;;;7.93;2.43;;;;;;;3.46;88.69;101255.25;5053758;28;20218;-77
2023/03/04 02:30:49;;;;;;;8.43;3.07;;;;;;;3.45;88.89;101259.56;5053656;28;20694;-77
2023/03/04 02:33:17;;;;;;;5.30;1.93;;;;;;;3.43;88.77;101258.66;5053545;28;20684;-77
2023/03/04 02:35:44;;;;;;;10.63;2.43;;;;;;;3.50;88.65;101244.16;5054550;28;20208;-80
2023/03/04 02:38:11;;;;;;;10.07;2.97;;;;;;;3.57;88.23;101258.97;5055873;28;20267;-80
2023/03/04 02:40:40;;;;;;;7.53;2.67;;;;;;;3.59;87.69;101280.53;5055780;28;20255;-80
2023/03/04 02:43:09;;;;;;;12.37;2.37;;;;;;;3.62;87.82;101275.41;5056272;28;20268;-80
2023/03/04 02:45:42;;;;;;;8.47;2.40;;;;;;;3.71;87.43;101273.03;5054947;28;20680;-77
2023/03/04 02:48:09;;;;;;;6.90;1.93;;;;;;;3.65;87.51;101283.25;5053683;28;20221;-78
2023/03/04 02:50:40;;;;;;;6.30;2.30;;;;;;;3.72;87.48;101279.06;5053343;28;20281;-78
2023/03/04 02:53:06;;;;;;;4.57;1.67;;;;;;;3.66;87.71;101290.13;5054840;28;20743;-80
2023/03/04 02:55:33;;;;;;;7.27;1.80;;;;;;;3.69;87.76;101279.88;5055144;28;20629;-80
2023/03/04 02:57:59;;;;;;;7.00;3.00;;;;;;;3.75;87.53;101281.75;5053949;28;20228;-77
2023/03/04 03:00:26;;;;;;;9.73;2.00;;;;;;;3.76;87.71;101276.59;5053020;28;20733;-77
2023/03/04 03:02:55;;;;;;;10.10;1.90;;;;;;;3.74;87.64;101278.25;5053280;28;20275;-77
2023/03/04 03:05:22;;;;;;;12.30;1.93;;;;;;;3.72;87.98;101271.34;5053288;28;20213;-80
2023/03/04 03:07:48;;;;;;;4.73;1.53;;;;;;;3.81;87.54;101278.44;5055351;28;20716;-80
2023/03/04 03:10:15;;;;;;;7.83;1.87;;;;;;;3.81;87.69;101284.47;5053675;28;20203;-77
2023/03/04 03:12:41;;;;;;;10.13;2.40;;;;;;;3.76;87.84;101279.16;5053263;28;20209;-77
2023/03/04 03:15:08;;;;;;;4.97;1.63;;;;;;;3.83;87.35;101280.19;5052239;28;20204;-77
2023/03/04 03:17:35;;;;;;;5.70;2.03;;;;;;;3.80;87.33;101279.25;5052880;28;20220;-78
2023/03/04 03:20:04;;;;;;;8.30;1.60;;;;;;;3.81;87.51;101271.53;5052775;28;20283;-77
2023/03/04 03:22:30;;;;;;;8.40;1.70;;;;;;;3.86;87.39;101272.50;5053093;28;20205;-77
2023/03/04 03:24:56;;;;;;;5.60;1.50;;;;;;;3.87;87.20;101274.25;5052142;28;20209;-77
2023/03/04 03:27:23;;;;;;;8.13;1.90;;;;;;;3.89;87.63;101272.59;5052624;28;20750;-77
2023/03/04 03:29:49;;;;;;;8.27;1.60;;;;;;;3.76;88.15;101265.41;5052276;28;20222;-77
2023/03/04 03:32:15;;;;;;;7.47;1.57;;;;;;;3.88;87.94;101252.75;5052661;28;20263;-78
2023/03/04 03:34:42;;;;;;;7.23;1.50;;;;;;;3.86;88.16;101251.84;5052544;28;20212;-78
2023/03/04 03:37:10;;;;;;;5.83;1.50;;;;;;;3.79;88.42;101247.41;5052918;28;20205;-77
2023/03/04 03:39:36;;;;;;;4.23;1.50;;;;;;;3.77;88.95;101244.78;5052370;28;20229;-77
2023/03/04 03:42:03;;;;;;;6.20;1.67;;;;;;;3.80;88.38;101235.34;5052498;28;20209;-77
2023/03/04 03:44:30;;;;;;;6.40;2.10;;;;;;;3.85;88.31;101231.16;5052658;28;20216;-77
2023/03/04 03:46:57;;;;;;;5.43;2.10;;;;;;;3.78;88.48;101236.19;5059896;28;20667;-78
2023/03/04 03:49:23;;;;;;;7.87;1.43;;;;;;;3.78;88.93;101223.25;5063028;28;20269;-77
2023/03/04 03:51:49;;;;;;;4.30;1.97;;;;;;;3.76;89.13;101212.03;5061081;28;20608;-78
2023/03/04 03:54:17;;;;;;;5.53;1.83;;;;;;;3.78;89.41;101196.56;5059064;28;20205;-78
2023/03/04 03:56:43;;;;;;;5.97;1.70;;;;;;;3.74;90.05;101184.44;5060136;28;20207;-77
2023/03/04 03:59:10;;;;;;;7.37;1.80;;;;;;;3.67;90.57;101167.97;5058326;28;20240;-79
2023/03/04 04:01:36;;;;;;;8.20;2.13;;;;;;;3.75;90.73;101156.09;5044083;28;20205;-80
2023/03/04 04:04:03;;;;;;;10.43;1.90;;;;;;;3.78;90.88;101155.25;5042711;28;20202;-78
2023/03/04 04:06:29;;;;;;;11.40;2.47;;;;;;;3.80;90.85;101147.56;5043689;28;20196;-77
2023/03/04 04:08:56;;;;;;;6.90;2.13;;;;;;;3.69;91.82;101126.69;5043016;28;20274;-77
2023/03/04 04:11:23;;;;;;;11.90;2.33;;;;;;;3.66;91.96;101112.00;5041581;28;20201;-77
2023/03/04 04:13:50;;;;;;;4.93;1.40;;;;;;;3.67;92.00;101105.16;5041161;28;20200;-79
2023/03/04 04:16:16;;;;;;;9.83;1.80;;;;;;;3.66;92.26;101098.22;5043727;28;20252;-80
2023/03/04 04:18:42;;;;;;;7.20;2.27;;;;;;;3.65;92.35;101097.38;5042622;28;20222;-78
2023/03/04 04:21:09;;;;;;;9.50;1.93;;;;;;;3.72;91.68;101100.91;5041091;28;20231;-77
2023/03/04 04:23:35;;;;;;;3.77;1.40;;;;;;;3.73;91.29;101110.44;5042920;28;20200;-77
2023/03/04 04:26:02;;;;;;;11.67;2.00;;;;;;;3.68;91.68;101114.63;5045511;28;20203;-77
2023/03/04 04:28:29;;;;;;;8.80;1.80;;;;;;;3.68;91.88;101097.41;5043052;28;20222;-77
2023/03/04 04:30:56;;;;;;;6.10;2.03;;;;;;;3.68;92.40;101094.81;5040452;28;20262;-77
2023/03/04 04:33:22;;;;;;;3.63;1.60;;;;;;;3.60;93.35;101083.47;5041826;28;20205;-77
2023/03/04 04:35:48;;;;;;;5.20;2.53;;;;;;;3.62;93.98;101060.28;5041703;28;20226;-78
2023/03/04 04:38:15;;;;;;;9.23;1.40;;;;;;;3.55;94.43;101047.25;5040037;28;20284;-80
2023/03/04 04:40:41;;;;;;;3.77;1.60;;;;;;;3.56;95.66;101024.91;5043656;28;20218;-80
2023/03/04 04:43:08;;;;;;;6.57;2.23;;;;;;;3.56;95.49;101007.69;5043227;28;20233;-80
2023/03/04 04:45:36;;;;;;;6.67;1.60;;;;;;;3.51;96.11;100988.69;5062011;28;20266;-77
2023/03/04 04:48:02;;;;;;;4.87;1.93;;;;;;;3.53;95.75;100983.56;5071612;28;20290;-78
2023/03/04 04:50:29;;;;;;;5.63;1.57;;;;;;;3.60;95.74;100987.09;5071948;28;20252;-77
2023/03/04 04:52:55;;;;;;;5.60;2.30;;;;;;;3.59;95.26;100991.41;5071765;28;20208;-77
2023/03/04 04:55:21;;;;;;;8.40;2.17;;;;;;;3.57;95.71;100986.22;5057134;28;20255;-78
2023/03/04 04:57:48;;;;;;;9.07;2.17;;;;;;;3.55;96.43;100974.13;5051597;28;20228;-80
2023/03/04 05:00:15;;;;;;;8.43;1.97;;;;;;;3.63;96.77;100969.06;5053466;28;20238;-77
2023/03/04 05:02:42;;;;;;;4.20;1.93;;;;;;;3.60;96.94;100957.00;5054021;28;20209;-77
2023/03/04 05:05:09;;;;;;;5.03;2.00;;;;;;;3.49;97.59;100950.75;5054930;28;20260;-77
2023/03/04 05:07:36;;;;;;;13.20;2.43;;;;;;;3.43;98.30;100935.16;5057606;28;20209;-81
2023/03/04 05:10:03;;;;;;;5.97;2.10;;;;;;;3.49;98.46;100909.47;5059266;28;20215;-80
2023/03/04 05:12:29;;;;;;;4.93;1.90;;;;;;;3.51;98.18;100918.13;5055101;28;20211;-77
2023/03/04 05:14:56;;;;;;;4.70;2.20;;;;;;;3.49;98.36;100914.63;5054749;28;20679;-78
2023/03/04 05:17:22;;;;;;;10.80;2.00;;;;;;;3.42;98.91;100908.50;5054926;28;20209;-78
2023/03/04 05:19:50;;;;;;;6.00;2.07;;;;;;;3.39;99.36;100887.81;5054809;28;20284;-79
2023/03/04 05:22:16;;;;;;;6.13;1.70;;;;;;;3.44;99.87;100870.69;5055159;28;20242;-80
2023/03/04 05:24:42;;;;;;;6.87;2.00;;;;;;;3.42;99.99;100869.78;5056699;28;20205;-78
2023/03/04 05:27:09;;;;;;;6.13;1.80;;;;;;;3.42;99.90;100863.78;5054525;28;20210;-77
2023/03/04 05:29:35;;;;;;;4.90;1.77;;;;;;;3.41;99.67;100857.75;5055195;28;20267;-77
2023/03/04 05:32:01;;;;;;;5.33;1.97;;;;;;;3.40;99.77;100870.63;5055411;28;20206;-77
2023/03/04 05:34:28;;;;;;;4.80;1.60;;;;;;;3.43;99.36;100878.41;5054365;28;20213;-77
2023/03/04 05:36:55;;;;;;;4.40;1.43;;;;;;;3.41;99.79;100883.56;5054663;28;20214;-79
2023/03/04 05:39:22;;;;;;;6.20;2.13;;;;;;;3.42;99.31;100881.84;5056804;28;20244;-80
2023/03/04 05:41:48;;;;;;;3.87;1.20;;;;;;;3.34;100.00;100864.50;5054954;28;20209;-78
2023/03/04 05:44:14;;;;;;;4.23;1.37;;;;;;;3.37;100.00;100868.88;5054735;28;20213;-77
2023/03/04 05:46:41;;;;;;;5.17;2.20;;;;;;;3.35;100.00;100857.63;5054131;28;20726;-77
2023/03/04 05:49:07;;;;;;;10.63;2.50;;;;;;;3.26;100.00;100857.47;5054229;28;20231;-77
2023/03/04 05:51:33;;;;;;;4.93;1.77;;;;;;;3.27;100.00;100854.94;5054364;28;20260;-78
2023/03/04 05:54:01;;;;;;;6.47;1.97;;;;;;;3.22;100.00;100848.81;5056032;28;20626;-80
2023/03/04 05:56:28;;;;;;;6.03;2.10;;;;;;;3.23;100.00;100831.63;5048060;28;20576;-80
2023/03/04 05:58:57;;;;;;;5.83;1.80;;;;;;;3.29;100.00;100834.28;5056301;28;20213;-80
2023/03/04 06:01:23;;;;;;;5.23;1.87;;;;;;;3.26;100.00;100836.84;5056375;28;20205;-80
2023/03/04 06:03:49;;;;;;;8.60;2.10;;;;;;;3.28;100.00;100843.75;5055939;28;20281;-80
2023/03/04 06:06:16;;;;;;;2.83;1.60;;;;;;;3.29;100.00;100842.03;5055192;28;20201;-78
2023/03/04 06:08:42;;;;;;;8.37;2.07;;;;;;;3.31;100.00;100848.97;5054588;28;20257;-77
2023/03/04 06:11:10;;;;;;;3.93;2.33;;;;;;;3.35;100.00;100843.03;5054348;28;20198;-78
2023/03/04 06:13:37;;;;;;;7.60;2.80;;;;;;;3.23;100.00;100829.94;5053214;28;20593;-77
2023/03/04 06:16:03;;;;;;;5.80;1.97;;;;;;;3.28;100.00;100830.00;5053646;28;20208;-78
2023/03/04 06:18:30;;;;;;;3.20;1.70;;;;;;;3.23;100.00;100819.59;5053657;28;20281;-78
2023/03/04 06:20:58;;;;;;;6.43;1.83;;;;;;;3.20;100.00;100810.94;5054156;28;20228;-77
2023/03/04 06:23:25;;;;;;;4.33;1.73;;;;;;;3.25;100.00;100815.34;5054313;28;20664;-78
2023/03/04 06:25:52;;;;;;;6.33;1.87;;;;;;;3.24;100.00;100812.72;5053853;28;20206;-77
2023/03/04 06:28:20;;;;;;;5.07;2.20;;;;;;;3.30;100.00;100807.66;5051561;28;20606;-77
2023/03/04 06:30:46;;;;;;;4.70;1.97;;;;;;;3.25;100.00;100807.59;5053896;28;20211;-80
2023/03/04 06:33:12;;;;;;;9.03;3.37;;;;;;;3.34;100.00;100814.63;5056831;28;20774;-80
2023/03/04 06:35:38;;;;;;;4.73;1.77;;;;;;;3.38;100.00;100816.41;5053590;28;20211;-78
2023/03/04 06:40:32;;;;;;;6.50;1.97;;;;;;;3.30;100.00;100818.84;5059966;22;20230;-81
2023/03/04 06:42:58;;;;;;;8.30;2.00;;;;;;;3.32;100.00;100812.00;5037340;28;20225;-80
2023/03/04 06:45:26;;;;;;;6.40;2.00;;;;;;;3.37;100.00;100805.22;5038554;28;20204;-81
2023/03/04 06:47:52;;;;;;;5.37;1.90;;;;;;;3.32;100.00;100801.69;5038498;28;20202;-80
2023/03/04 06:50:19;;;;;;;4.50;2.40;;;;;;;3.22;100.00;100792.06;5038758;28;20236;-80
2023/03/04 06:52:45;;;;;;;6.00;1.90;;;;;;;3.18;100.00;100785.97;5038422;28;20205;-80
2023/03/04 06:55:12;;;;;;;7.00;1.97;;;;;;;3.26;100.00;100777.50;5038639;28;20208;-82
2023/03/04 06:57:39;;;;;;;5.23;1.67;;;;;;;3.35;100.00;100783.69;5038846;28;20580;-80
2023/03/04 07:00:06;;;;;;;8.30;1.90;;;;;;;3.38;100.00;100790.59;5054776;28;20288;-81
2023/03/04 07:02:34;;;;;;;3.23;1.30;;;;;;;3.45;100.00;100802.78;5059152;28;20211;-82
2023/03/04 07:05:00;;;;;;;7.03;1.80;;;;;;;3.52;100.00;100812.31;5059796;28;20237;-82
2023/03/04 07:07:27;;;;;;;4.00;1.90;;;;;;;3.46;100.00;100808.78;5062090;28;20255;-81
2023/03/04 07:09:53;;;;;;;5.17;1.60;;;;;;;3.56;100.00;100814.09;5061535;28;20228;-82
2023/03/04 07:12:20;;;;;;;7.57;2.47;;;;;;;3.55;100.00;100814.97;5062022;28;20588;-82
2023/03/04 07:14:46;;;;;;;8.70;3.60;;;;;;;3.64;100.00;100815.94;5061086;28;20207;-81
2023/03/04 07:17:12;;;;;;;4.30;1.70;;;;;;;3.72;100.00;100824.69;5062301;28;20251;-82
2023/03/04 07:19:40;;;;;;;5.40;2.20;;;;;;;3.75;100.00;100835.06;5062380;28;20254;-83
2023/03/04 07:22:07;;;;;;;4.17;1.70;;;;;;;3.76;100.00;100831.63;5061797;28;20202;-82
2023/03/04 07:24:33;;;;;;;3.87;1.70;;;;;;;3.69;100.00;100830.66;5060575;28;20286;-80
2023/03/04 07:26:59;;;;;;;3.23;1.77;;;;;;;3.70;100.00;100834.09;5061066;28;20202;-80
2023/03/04 07:29:26;;;;;;;4.70;2.03;;;;;;;3.72;100.00;100832.41;5059106;28;20236;-81
2023/03/04 07:31:52;;;;;;;4.13;1.97;;;;;;;3.73;100.00;100835.03;5061704;28;20215;-82
2023/03/04 07:34:18;;;;;;;4.97;1.90;;;;;;;3.82;100.00;100844.63;5060879;28;20212;-81
2023/03/04 07:36:46;;;;;;;5.17;1.73;;;;;;;3.93;100.00;100849.97;5061118;28;20213;-82
2023/03/04 07:39:13;;;;;;;8.37;1.90;;;;;;;3.95;100.00;100864.63;5061237;28;20239;-82
2023/03/04 07:41:40;;;;;;;4.87;1.67;;;;;;;3.90;100.00;100868.84;5062030;28;20228;-82
2023/03/04 07:44:08;;;;;;;4.27;2.20;;;;;;;3.87;100.00;100868.81;5061707;28;20753;-82
2023/03/04 07:46:35;;;;;;;3.43;1.93;;;;;;;3.90;100.00;100835.25;5061688;28;20238;-82
2023/03/04 07:49:01;;;;;;;7.43;1.60;;;;;;;4.02;100.00;100810.47;5061450;28;20235;-82
2023/03/04 07:51:28;;;;;;;7.73;2.00;;;;;;;4.01;100.00;100811.34;5060328;28;20627;-82
2023/03/04 07:53:57;;;;;;;4.90;1.50;;;;;;;4.03;100.00;100823.41;5060912;28;20209;-81
2023/03/04 07:56:27;;;;;;;4.03;1.70;;;;;;;3.94;100.00;100818.09;5061003;28;20208;-82
2023/03/04 07:58:55;;;;;;;6.07;1.83;;;;;;;4.06;100.00;100833.78;5058934;28;20225;-81
2023/03/04 08:01:23;;;;;;;6.03;2.30;;;;;;;4.22;100.00;100827.09;5060693;28;20240;-82
2023/03/04 08:03:50;;;;;;;5.57;2.30;;;;;;;4.20;100.00;100849.47;5061249;28;20247;-83
2023/03/04 08:06:18;;;;;;;3.67;1.63;;;;;;;4.30;100.00;100864.28;5060302;28;20206;-81
2023/03/04 08:08:45;;;;;;;3.30;2.33;;;;;;;4.32;100.00;100877.19;5060863;28;20224;-82
2023/03/04 08:11:14;;;;;;;3.93;1.57;;;;;;;4.28;100.00;100855.63;5060010;28;20205;-82
2023/03/04 08:13:41;;;;;;;5.10;1.47;;;;;;;4.23;100.00;100866.75;5049614;28;20199;-82
2023/03/04 08:16:07;;;;;;;3.30;1.63;;;;;;;4.32;100.00;100872.03;5029671;28;20198;-83
2023/03/04 08:18:34;;;;;;;3.93;1.23;;;;;;;4.35;100.00;100869.50;5030602;28;20256;-83
2023/03/04 08:21:00;;;;;;;2.57;1.27;;;;;;;4.34;100.00;100870.31;5029816;28;20260;-82
2023/03/04 08:23:27;;;;;;;4.00;1.10;;;;;;;4.34;100.00;100873.81;5030883;28;20195;-80
2023/03/04 08:25:53;;;;;;;4.67;1.70;;;;;;;4.46;100.00;100874.78;5033691;28;20342;-81
2023/03/04 08:28:21;;;;;;;3.33;1.10;;;;;;;4.55;100.00;100896.47;5033597;28;20236;-82
2023/03/04 08:30:53;;;;;;;2.20;1.10;;;;;;;4.51;99.32;100917.09;5051465;28;20770;-83
2023/03/04 08:33:20;;;;;;;2.97;1.20;;;;;;;4.66;99.05;100937.97;5058862;28;20592;-81
2023/03/04 08:35:46;;;;;;;2.50;1.00;;;;;;;4.67;98.85;100959.53;5057939;28;20209;-82
2023/03/04 08:38:13;;;;;;;3.40;1.30;;;;;;;4.72;99.31;100958.75;5061906;28;20212;-81
2023/03/04 08:40:39;;;;;;;3.27;1.20;;;;;;;4.38;100.00;100916.94;5049605;28;20225;-81
2023/03/04 08:43:05;;;;;;;5.40;2.37;;;;;;;4.34;100.00;100826.38;5031894;28;20210;-81
2023/03/04 08:45:33;;;;;;;2.20;1.47;;;;;;;4.20;100.00;100777.13;5036645;28;20254;-82
2023/03/04 08:47:59;;;;;;;2.37;1.50;;;;;;;4.11;100.00;100746.03;5045462;28;20212;-84
2023/03/04 08:50:26;;;;;;;2.33;1.87;;;;;;;4.14;100.00;100730.53;5029935;28;20226;-81
2023/03/04 08:52:53;;;;;;;3.77;1.77;;;;;;;4.23;100.00;100719.47;5025446;28;20205;-83
2023/03/04 08:55:20;;;;;;;2.47;1.77;;;;;;;4.21;100.00;100732.38;5027435;28;20318;-81
2023/03/04 08:57:46;;;;;;;1.83;1.30;;;;;;;4.24;100.00;100744.44;5028750;28;20215;-82
2023/03/04 09:00:13;;;;;;;3.57;1.90;;;;;;;4.48;100.00;100743.84;5027077;28;20228;-82
2023/03/04 09:02:41;;;;;;;2.90;1.40;;;;;;;4.47;100.00;100775.72;5028966;28;20561;-81
2023/03/04 09:05:08;;;;;;;4.53;1.43;;;;;;;4.59;100.00;100804.31;5030482;28;20982;-81
2023/03/04 09:07:35;;;;;;;3.87;1.70;;;;;;;4.54;100.00;100829.25;5036662;28;20202;-81
2023/03/04 09:10:01;;;;;;;3.53;2.40;;;;;;;4.54;100.00;100829.25;5033028;28;20600;-82
2023/03/04 09:12:28;;;;;;;2.63;1.47;;;;;;;4.56;100.00;100824.97;5028618;28;20199;-79
2023/03/04 09:14:54;;;;;;;2.23;1.20;;;;;;;4.60;100.00;100829.31;5030960;28;20633;-82
2023/03/04 09:17:20;;;;;;;1.57;1.00;;;;;;;4.64;100.00;100856.94;5030111;28;20664;-82
2023/03/04 09:19:48;;;;;;;2.03;1.60;;;;;;;4.78;100.00;100880.38;5027044;28;20250;-81
2023/03/04 09:22:14;;;;;;;2.87;1.10;;;;;;;4.79;100.00;100887.28;5027633;28;20241;-82
2023/03/04 09:24:41;;;;;;;2.77;1.10;;;;;;;4.89;100.00;100898.59;5031965;28;20205;-81
2023/03/04 09:27:09;;;;;;;2.37;1.30;;;;;;;4.80;100.00;100907.13;5050177;28;20232;-81
2023/03/04 09:29:35;;;;;;;2.77;1.60;;;;;;;4.85;100.00;100912.34;5057749;28;20281;-81
2023/03/04 09:32:02;;;;;;;2.63;1.30;;;;;;;4.98;100.00;100909.06;5058223;28;20680;-81
2023/03/04 09:34:28;;;;;;;1.57;1.23;;;;;;;4.97;100.00;100931.50;5052028;28;20225;-80
2023/03/04 09:36:56;;;;;;;4.33;1.80;;;;;;;5.10;100.00;100934.22;5058116;28;20209;-80
2023/03/04 09:39:22;;;;;;;1.43;1.33;;;;;;;5.03;100.00;100937.56;5025805;28;20234;-80
2023/03/04 09:41:54;;;;;;;4.27;1.90;;;;;;;5.01;100.00;100932.38;5029282;28;20222;-80
2023/03/04 09:44:24;;;;;;;1.47;1.37;;;;;;;5.01;100.00;100900.47;5037627;28;20694;-81
2023/03/04 09:46:51;;;;;;;3.33;2.30;;;;;;;5.04;100.00;100874.63;5037772;28;20673;-82
2023/03/04 09:49:21;;;;;;;2.90;1.70;;;;;;;5.02;100.00;100853.91;5037450;28;20781;-81
2023/03/04 09:51:55;;;;;;;2.80;1.60;;;;;;;5.00;100.00;100842.69;5038255;28;20202;-80
2023/03/04 09:54:32;;;;;;;3.53;1.60;;;;;;;4.81;100.00;100823.50;5037225;28;20640;-79
2023/03/04 09:57:06;;;;;;;2.70;1.53;;;;;;;4.91;100.00;100802.06;5038358;28;20208;-80
2023/03/04 09:59:40;;;;;;;2.90;1.70;;;;;;;4.76;100.00;100770.88;5037675;28;20248;-81
2023/03/04 10:02:27;;;;;;;4.50;2.13;;;;;;;4.74;100.00;100746.72;5038065;28;20276;-80
2023/03/04 10:04:59;;;;;;;4.60;1.83;;;;;;;4.66;100.00;100740.59;5043740;28;20216;-81
2023/03/04 10:07:31;;;;;;;5.70;3.00;;;;;;;4.53;100.00;100724.09;5058137;28;20294;-81
2023/03/04 10:10:03;;;;;;;3.00;2.70;;;;;;;4.67;100.00;100721.66;5057523;28;20252;-81
2023/03/04 10:12:34;;;;;;;3.57;2.83;;;;;;;4.73;100.00;100719.97;5057913;28;20707;-81
2023/03/04 10:15:04;;;;;;;6.67;3.53;;;;;;;4.75;100.00;100727.75;5057354;28;20267;-81
2023/03/04 10:17:36;;;;;;;5.47;3.10;;;;;;;4.86;100.00;100730.47;5056778;28;20213;-81
2023/03/04 10:20:06;;;;;;;7.67;2.90;;;;;;;4.95;100.00;100762.44;5057392;28;20719;-81
2023/03/04 10:22:36;;;;;;;6.97;2.43;;;;;;;4.98;100.00;100793.50;5058013;28;20221;-80
2023/03/04 10:25:16;;;;;;;4.83;1.90;;;;;;;5.13;100.00;100831.63;5058897;28;20274;-82
2023/03/04 10:27:47;;;;;;;8.50;3.23;;;;;;;5.08;100.00;100873.81;5058250;28;20696;-80
2023/03/04 10:30:23;;;;;;;6.87;2.03;;;;;;;5.09;100.00;100912.63;5058327;28;20299;-82
2023/03/04 10:32:49;;;;;;;9.17;2.20;;;;;;;4.93;97.74;100980.56;5058692;28;20205;-80
2023/03/04 10:35:15;;;;;;;8.60;2.30;;;;;;;4.92;96.43;101007.28;5052670;28;20261;-81
2023/03/04 10:37:47;;;;;;;7.53;2.23;;;;;;;4.95;94.23;101056.47;5058340;28;20206;-82
2023/03/04 10:40:24;;;;;;;6.27;1.60;;;;;;;5.04;93.88;101087.66;5056980;28;20271;-80
2023/03/04 10:42:52;;;;;;;6.33;1.67;;;;;;;5.01;91.95;101121.22;5056988;28;20630;-81
2023/03/04 10:45:23;;;;;;;7.27;1.83;;;;;;;5.03;90.54;101180.78;5057110;28;20209;-80
2023/03/04 10:47:54;;;;;;;6.30;1.83;;;;;;;5.14;88.91;101210.28;5057653;28;20224;-82
2023/03/04 10:50:25;;;;;;;8.93;1.20;;;;;;;5.25;85.85;101265.69;5057362;28;20253;-81
2023/03/04 10:52:54;;;;;;;5.80;1.80;;;;;;;5.41;83.66;101333.22;5057001;28;20220;-81
2023/03/04 10:55:25;;;;;;;6.53;1.53;;;;;;;5.60;83.34;101368.06;5056949;28;20197;-81
2023/03/04 10:57:54;;;;;;;7.20;1.70;;;;;;;5.68;84.42;101387.19;5056817;28;20205;-82
2023/03/04 11:00:30;;;;;;;6.30;2.13;;;;;;;5.69;81.47;101436.44;5056219;28;20225;-80
2023/03/04 11:03:20;;;;;;;5.90;1.63;;;;;;;5.80;82.54;101459.94;5056884;28;20255;-82
2023/03/04 11:05:46;;;;;;;2.63;1.50;;;;;;;5.75;80.65;101479.72;5050745;28;20737;-81
2023/03/04 11:08:18;;;;;;;6.23;3.03;;;;;;;5.88;80.65;101489.44;5057148;28;20336;-82
2023/03/04 11:10:45;;;;;;;3.77;1.67;;;;;;;5.92;80.30;101516.28;5057158;28;20210;-80
2023/03/04 11:13:16;;;;;;;4.10;1.00;;;;;;;6.00;80.01;101524.22;5057011;28;20255;-82
2023/03/04 11:15:51;;;;;;;3.77;1.03;;;;;;;5.95;79.98;101537.97;5054260;28;20202;-82
2023/03/04 11:18:25;;;;;;;4.87;1.07;;;;;;;5.86;78.77;101550.72;5056971;28;20263;-80
2023/03/04 11:20:53;;;;;;;4.67;1.23;;;;;;;5.76;79.55;101567.81;5057064;28;20205;-82
2023/03/04 11:23:26;;;;;;;6.40;1.63;;;;;;;5.70;80.10;101559.91;5056517;28;20683;-81
2023/03/04 11:26:00;;;;;;;1.80;0.97;;;;;;;5.57;80.31;101545.88;5050185;28;20220;-82
2023/03/04 11:28:35;;;;;;;4.23;1.30;;;;;;;5.65;81.39;101506.28;5056830;28;20213;-82
2023/03/04 11:31:06;;;;;;;4.03;1.67;;;;;;;5.69;81.04;101497.72;5057248;28;20197;-82
2023/03/04 11:33:41;;;;;;;5.03;2.53;;;;;;;5.68;82.45;101457.13;5056342;28;20208;-82